createdAt,value
2022-08-24T00:02:07.993Z,26.72
2022-08-24T00:04:38.715Z,26.72
2022-08-24T00:07:13.019Z,26.69
2022-08-24T00:09:53.202Z,26.62
2022-08-24T00:12:19.834Z,26.55
2022-08-24T00:14:46.374Z,26.45
2022-08-24T00:17:12.837Z,26.39
2022-08-24T00:19:39.623Z,26.31
2022-08-24T00:22:06.315Z,26.27
2022-08-24T00:24:33.958Z,26.23
2022-08-24T00:27:00.525Z,26.20
2022-08-24T00:29:27.135Z,26.15
2022-08-24T00:31:53.872Z,26.09
2022-08-24T00:34:20.564Z,26.00
2022-08-24T00:36:47.381Z,25.90
2022-08-24T00:39:14.308Z,25.85
2022-08-24T00:41:43.845Z,25.82
2022-08-24T00:44:11.732Z,25.79
2022-08-24T00:46:46.469Z,25.79
2022-08-24T00:49:19.203Z,25.78
2022-08-24T00:52:03.785Z,25.75
2022-08-24T00:54:31.972Z,25.70
2022-08-24T00:57:01.369Z,25.63
2022-08-24T00:59:34.285Z,25.54
2022-08-24T01:02:06.274Z,25.50
2022-08-24T01:04:52.111Z,25.49
2022-08-24T01:07:19.246Z,25.48
2022-08-24T01:09:46.359Z,25.45
2022-08-24T01:12:14.020Z,25.40
2022-08-24T01:14:40.610Z,25.38
2022-08-24T01:17:25.489Z,25.35
2022-08-24T01:19:55.210Z,25.38
2022-08-24T01:22:31.045Z,25.42
2022-08-24T01:24:57.668Z,25.46
2022-08-24T01:27:27.862Z,25.45
2022-08-24T01:29:55.738Z,25.41
2022-08-24T01:32:27.925Z,25.35
2022-08-24T01:34:55.722Z,25.28
2022-08-24T01:37:22.606Z,25.25
2022-08-24T01:39:50.620Z,25.22
2022-08-24T01:42:17.228Z,25.27
2022-08-24T01:44:45.106Z,25.27
2022-08-24T01:47:13.558Z,25.18
2022-08-24T01:49:45.044Z,25.10
2022-08-24T01:52:13.354Z,25.03
2022-08-24T01:54:43.570Z,24.98
2022-08-24T01:57:11.380Z,24.95
2022-08-24T01:59:43.458Z,24.94
2022-08-24T02:02:19.795Z,24.90
2022-08-24T02:04:46.441Z,24.91
2022-08-24T02:07:14.028Z,24.89
2022-08-24T02:09:41.437Z,24.86
2022-08-24T02:12:08.827Z,24.84
2022-08-24T02:14:36.085Z,24.81
2022-08-24T02:17:04.371Z,24.81
2022-08-24T02:19:31.179Z,24.84
2022-08-24T02:21:58.495Z,24.83
2022-08-24T02:24:25.063Z,24.77
2022-08-24T02:26:51.723Z,24.70
2022-08-24T02:29:18.332Z,24.64
2022-08-24T02:31:45.057Z,24.63
2022-08-24T02:34:11.683Z,24.65
2022-08-24T02:36:40.628Z,24.62
2022-08-24T02:39:08.122Z,24.56
2022-08-24T02:41:35.231Z,24.52
2022-08-24T02:44:02.851Z,24.48
2022-08-24T02:46:30.494Z,24.46
2022-08-24T02:49:11.499Z,24.46
2022-08-24T02:51:45.333Z,24.46
2022-08-24T02:54:19.555Z,24.46
2022-08-24T02:56:48.209Z,24.45
2022-08-24T02:59:16.300Z,24.42
2022-08-24T03:01:44.229Z,24.38
2022-08-24T03:04:12.052Z,24.34
2022-08-24T03:06:38.702Z,24.32
2022-08-24T03:09:05.638Z,24.30
2022-08-24T03:11:32.324Z,24.28
2022-08-24T03:13:59.513Z,24.27
2022-08-24T03:16:27.450Z,24.26
2022-08-24T03:18:54.620Z,24.23
2022-08-24T03:21:22.074Z,24.16
2022-08-24T03:24:06.627Z,24.14
2022-08-24T03:26:33.436Z,24.14
2022-08-24T03:29:00.388Z,24.13
2022-08-24T03:31:28.083Z,24.10
2022-08-24T03:33:54.617Z,24.07
2022-08-24T03:36:21.643Z,24.07
2022-08-24T03:38:48.363Z,24.04
2022-08-24T03:41:15.315Z,24.01
2022-08-24T03:43:46.612Z,23.96
2022-08-24T03:46:17.087Z,23.92
2022-08-24T03:48:44.482Z,23.89
2022-08-24T03:51:12.401Z,23.88
2022-08-24T03:53:42.338Z,23.87
2022-08-24T03:56:10.107Z,23.86
2022-08-24T03:58:37.842Z,23.84
2022-08-24T04:01:05.483Z,23.85
2022-08-24T04:03:37.171Z,23.85
2022-08-24T04:06:05.402Z,23.90
2022-08-24T04:08:32.489Z,23.95
2022-08-24T04:10:59.480Z,23.98
2022-08-24T04:13:26.095Z,23.95
2022-08-24T04:15:53.065Z,23.90
2022-08-24T04:18:20.052Z,23.87
2022-08-24T04:20:46.736Z,23.86
2022-08-24T04:23:17.442Z,23.85
2022-08-24T04:25:45.645Z,23.81
2022-08-24T04:28:13.887Z,23.77
2022-08-24T04:30:41.845Z,23.76
2022-08-24T04:33:10.780Z,23.77
2022-08-24T04:35:41.819Z,23.75
2022-08-24T04:38:08.675Z,23.71
2022-08-24T04:40:39.311Z,23.71
2022-08-24T04:43:06.227Z,23.68
2022-08-24T04:45:37.839Z,23.68
2022-08-24T04:48:04.593Z,23.75
2022-08-24T04:50:33.973Z,23.79
2022-08-24T04:53:00.571Z,23.74
2022-08-24T04:55:27.242Z,23.78
2022-08-24T04:57:54.278Z,23.78
2022-08-24T05:00:21.072Z,23.79
2022-08-24T05:02:47.731Z,23.80
2022-08-24T05:05:14.545Z,23.85
2022-08-24T05:07:41.006Z,23.88
2022-08-24T05:10:08.913Z,23.90
2022-08-24T05:12:35.863Z,23.93
2022-08-24T05:15:07.163Z,23.95
2022-08-24T05:17:41.058Z,23.98
2022-08-24T05:20:10.285Z,24.04
2022-08-24T05:22:38.112Z,24.10
2022-08-24T05:25:05.667Z,24.15
2022-08-24T05:27:33.894Z,24.17
2022-08-24T05:30:00.669Z,24.16
2022-08-24T05:32:27.298Z,24.15
2022-08-24T05:34:54.472Z,24.10
2022-08-24T05:37:21.790Z,24.06
2022-08-24T05:40:10.358Z,24.08
2022-08-24T05:42:39.386Z,24.14
2022-08-24T05:45:07.383Z,24.21
2022-08-24T05:47:34.776Z,24.24
2022-08-24T05:50:08.176Z,24.26
2022-08-24T05:52:35.655Z,24.27
2022-08-24T05:55:02.680Z,24.26
2022-08-24T05:57:34.713Z,24.25
2022-08-24T06:00:12.380Z,24.25
2022-08-24T06:02:52.906Z,24.24
2022-08-24T06:05:20.923Z,24.22
2022-08-24T06:07:47.680Z,24.21
2022-08-24T06:10:35.427Z,24.25
2022-08-24T06:13:01.120Z,24.26
2022-08-24T06:15:28.054Z,24.31
2022-08-24T06:17:54.821Z,24.36
2022-08-24T06:20:22.235Z,24.44
2022-08-24T06:22:50.299Z,24.50
2022-08-24T06:25:36.584Z,24.61
2022-08-24T06:28:03.515Z,24.76
2022-08-24T06:30:30.648Z,24.92
2022-08-24T06:33:18.011Z,24.98
2022-08-24T06:35:47.776Z,24.96
2022-08-24T06:38:14.655Z,24.97
2022-08-24T06:40:42.966Z,25.05
2022-08-24T06:43:11.311Z,25.12
2022-08-24T06:45:51.245Z,25.19
2022-08-24T06:48:21.367Z,25.53
2022-08-24T06:50:49.673Z,27.09
2022-08-24T06:53:17.120Z,27.83
2022-08-24T06:55:50.207Z,27.65
2022-08-24T06:58:17.685Z,27.11
2022-08-24T07:00:45.002Z,26.71
2022-08-24T07:03:13.043Z,26.40
2022-08-24T07:05:51.194Z,26.21
2022-08-24T07:08:30.673Z,26.10
2022-08-24T07:10:57.286Z,26.08
2022-08-24T07:13:23.873Z,26.05
2022-08-24T07:15:50.867Z,26.04
2022-08-24T07:18:18.236Z,26.11
2022-08-24T07:20:48.179Z,26.15
2022-08-24T07:23:20.724Z,26.12
2022-08-24T07:25:49.610Z,26.10
2022-08-24T07:28:27.779Z,26.08
2022-08-24T07:31:00.090Z,26.11
2022-08-24T07:33:28.537Z,26.16
2022-08-24T07:35:56.340Z,26.20
2022-08-24T07:38:24.096Z,26.26
2022-08-24T07:41:33.677Z,26.30
2022-08-24T07:43:42.939Z,26.36
2022-08-24T07:46:10.529Z,26.47
2022-08-24T07:48:37.223Z,26.59
2022-08-24T07:51:08.264Z,26.70
2022-08-24T07:53:52.499Z,26.82
2022-08-24T07:56:21.847Z,26.95
2022-08-24T07:58:49.423Z,27.03
2022-08-24T08:01:22.536Z,27.15
2022-08-24T08:03:50.391Z,27.29
2022-08-24T08:06:19.083Z,27.47
2022-08-24T08:08:47.977Z,27.65
2022-08-24T08:11:14.693Z,27.83
2022-08-24T08:16:09.021Z,28.20
2022-08-24T08:18:35.866Z,28.39
2022-08-24T08:21:27.446Z,28.53
2022-08-24T08:24:14.280Z,28.67
2022-08-24T08:26:43.691Z,28.84
2022-08-24T08:29:15.873Z,29.14
2022-08-24T08:31:42.585Z,29.34
2022-08-24T08:34:10.058Z,29.59
2022-08-24T08:36:39.553Z,30.07
2022-08-24T08:39:07.956Z,31.70
2022-08-24T08:41:36.027Z,34.43
2022-08-24T08:44:15.967Z,36.54
2022-08-24T08:47:02.628Z,37.91
2022-08-24T08:49:54.394Z,39.26
2022-08-24T08:52:24.688Z,40.75
2022-08-24T08:54:59.893Z,42.00
2022-08-24T08:57:34.945Z,43.22
2022-08-24T09:00:15.600Z,43.73
2022-08-24T09:03:03.816Z,44.11
2022-08-24T09:05:41.822Z,44.83
2022-08-24T09:08:27.475Z,45.70
2022-08-24T09:11:03.554Z,46.29
2022-08-24T09:13:30.173Z,46.51
2022-08-24T09:16:19.410Z,46.55
2022-08-24T09:19:02.834Z,46.80
2022-08-24T09:21:48.436Z,47.61
2022-08-24T09:24:29.388Z,48.25
2022-08-24T09:27:08.961Z,48.51
2022-08-24T09:29:45.763Z,48.84
2022-08-24T09:32:16.356Z,48.85
2022-08-24T09:34:53.817Z,48.85
2022-08-24T09:37:32.011Z,49.53
2022-08-24T09:39:58.538Z,49.95
2022-08-24T09:42:27.955Z,50.16
2022-08-24T09:45:04.972Z,49.62
2022-08-24T09:47:40.721Z,49.03
2022-08-24T09:50:16.385Z,49.62
2022-08-24T09:53:09.637Z,50.11
2022-08-24T09:55:55.230Z,51.06
2022-08-24T09:58:32.173Z,52.18
2022-08-24T10:01:08.848Z,53.32
2022-08-24T10:03:50.058Z,54.14
2022-08-24T10:06:24.294Z,54.01
2022-08-24T10:08:56.924Z,54.32
2022-08-24T10:11:42.685Z,55.16
2022-08-24T10:14:09.247Z,55.39
2022-08-24T10:16:54.634Z,55.42
2022-08-24T10:19:44.367Z,55.55
2022-08-24T10:22:20.259Z,55.65
2022-08-24T10:24:53.872Z,55.82
2022-08-24T10:27:29.068Z,55.28
2022-08-24T10:30:08.033Z,54.67
2022-08-24T10:32:53.089Z,55.74
2022-08-24T10:35:22.356Z,56.76
2022-08-24T10:37:52.051Z,57.60
2022-08-24T10:40:19.334Z,57.77
2022-08-24T10:43:25.974Z,56.96
2022-08-24T10:45:59.066Z,56.10
2022-08-24T10:48:33.323Z,55.33
2022-08-24T10:51:10.603Z,54.79
2022-08-24T10:53:37.329Z,55.83
2022-08-24T10:56:04.522Z,55.83
2022-08-24T10:58:31.162Z,55.46
2022-08-24T11:01:12.522Z,55.43
2022-08-24T11:04:02.824Z,56.25
2022-08-24T11:06:31.751Z,55.87
2022-08-24T11:09:02.671Z,56.54
2022-08-24T11:11:31.334Z,56.08
2022-08-24T11:14:00.631Z,56.27
2022-08-24T11:16:47.515Z,56.59
2022-08-24T11:19:29.232Z,56.00
2022-08-24T11:21:57.121Z,56.42
2022-08-24T11:24:26.705Z,57.18
2022-08-24T11:27:02.871Z,57.44
2022-08-24T11:29:31.521Z,57.64
2022-08-24T11:31:58.943Z,57.63
2022-08-24T11:34:33.881Z,57.48
2022-08-24T11:37:00.455Z,57.89
2022-08-24T11:39:35.462Z,58.06
2022-08-24T11:42:02.058Z,57.99
2022-08-24T11:44:37.031Z,57.59
2022-08-24T11:47:10.091Z,57.37
2022-08-24T11:49:36.605Z,57.16
2022-08-24T11:52:08.501Z,57.02
2022-08-24T11:54:53.777Z,57.04
2022-08-24T11:57:47.602Z,56.78
2022-08-24T12:00:19.789Z,56.11
2022-08-24T12:03:05.724Z,55.14
2022-08-24T12:05:40.405Z,54.48
2022-08-24T12:08:16.168Z,54.06
2022-08-24T12:11:01.356Z,52.47
2022-08-24T12:13:36.150Z,52.01
2022-08-24T12:16:16.627Z,52.64
2022-08-24T12:18:43.966Z,51.82
2022-08-24T12:21:13.185Z,51.03
2022-08-24T12:23:44.938Z,49.87
2022-08-24T12:26:14.562Z,46.58
2022-08-24T12:28:44.459Z,44.39
2022-08-24T12:31:16.012Z,42.82
2022-08-24T12:33:46.126Z,41.41
2022-08-24T12:36:27.058Z,40.57
2022-08-24T12:39:02.985Z,40.34
2022-08-24T12:41:33.420Z,39.44
2022-08-24T12:44:06.202Z,38.39
2022-08-24T12:46:32.968Z,38.16
2022-08-24T12:49:05.719Z,37.55
2022-08-24T12:51:35.367Z,37.33
2022-08-24T12:54:20.865Z,37.18
2022-08-24T12:56:48.231Z,37.08
2022-08-24T12:59:22.488Z,36.73
2022-08-24T13:02:01.662Z,36.53
2022-08-24T13:04:28.353Z,36.49
2022-08-24T13:07:30.194Z,36.60
2022-08-24T13:09:56.707Z,36.45
2022-08-24T13:12:43.581Z,36.37
2022-08-24T13:15:19.749Z,36.21
2022-08-24T13:17:46.988Z,36.24
2022-08-24T13:20:22.680Z,36.14
2022-08-24T13:23:08.110Z,36.16
2022-08-24T13:25:42.823Z,35.98
2022-08-24T13:28:27.735Z,36.04
2022-08-24T13:31:13.214Z,35.99
2022-08-24T13:33:42.875Z,35.89
2022-08-24T13:36:28.759Z,35.67
2022-08-24T13:39:09.450Z,35.42
2022-08-24T13:41:42.088Z,35.44
2022-08-24T13:44:22.276Z,35.41
2022-08-24T13:47:01.170Z,35.63
2022-08-24T13:49:30.662Z,35.67
2022-08-24T13:52:15.983Z,35.44
2022-08-24T13:54:45.970Z,35.23
2022-08-24T13:57:15.210Z,35.40
2022-08-24T13:59:43.307Z,35.50
2022-08-24T14:02:21.199Z,35.77
2022-08-24T14:05:08.108Z,35.79
2022-08-24T14:07:46.902Z,35.62
2022-08-24T14:10:32.009Z,35.74
2022-08-24T14:13:14.884Z,35.45
2022-08-24T14:16:13.507Z,35.35
2022-08-24T14:18:55.711Z,35.24
2022-08-24T14:21:24.703Z,35.23
2022-08-24T14:24:02.804Z,35.25
2022-08-24T14:26:36.883Z,35.30
2022-08-24T14:29:15.882Z,35.20
2022-08-24T14:32:11.785Z,35.13
2022-08-24T14:34:40.729Z,35.17
2022-08-24T14:37:13.503Z,35.13
2022-08-24T14:39:43.000Z,35.03
2022-08-24T14:42:15.945Z,35.07
2022-08-24T14:44:49.864Z,35.21
2022-08-24T14:47:43.175Z,35.19
2022-08-24T14:50:15.583Z,35.11
2022-08-24T14:52:51.756Z,35.09
2022-08-24T14:55:22.198Z,35.13
2022-08-24T14:57:51.767Z,35.09
2022-08-24T15:00:20.768Z,35.17
2022-08-24T15:02:53.427Z,35.24
2022-08-24T15:05:31.963Z,35.26
2022-08-24T15:08:01.256Z,35.24
2022-08-24T15:10:39.511Z,35.43
2022-08-24T15:13:20.741Z,35.37
2022-08-24T15:15:57.775Z,35.34
2022-08-24T15:18:42.638Z,35.29
2022-08-24T15:21:27.602Z,35.12
2022-08-24T15:23:59.885Z,34.95
2022-08-24T15:26:41.645Z,34.90
2022-08-24T15:29:13.089Z,35.04
2022-08-24T15:31:39.789Z,35.19
2022-08-24T15:34:06.540Z,35.26
2022-08-24T15:36:34.503Z,35.17
2022-08-24T15:39:03.189Z,34.84
2022-08-24T15:41:39.065Z,34.46
2022-08-24T15:44:09.442Z,34.41
2022-08-24T15:46:42.967Z,34.49
2022-08-24T15:49:15.558Z,34.53
2022-08-24T15:51:42.121Z,34.64
2022-08-24T15:54:24.906Z,34.52
2022-08-24T15:56:56.593Z,34.46
2022-08-24T15:59:29.571Z,34.39
2022-08-24T16:02:30.959Z,34.27
2022-08-24T16:05:16.603Z,34.40
2022-08-24T16:08:01.659Z,34.53
2022-08-24T16:10:33.724Z,34.53
2022-08-24T16:13:09.564Z,34.47
2022-08-24T16:15:44.319Z,34.41
2022-08-24T16:18:11.038Z,34.30
2022-08-24T16:20:37.671Z,34.03
2022-08-24T16:23:24.602Z,33.80
2022-08-24T16:26:11.163Z,33.56
2022-08-24T16:28:38.076Z,33.50
2022-08-24T16:31:07.075Z,33.43
2022-08-24T16:33:43.169Z,33.41
2022-08-24T16:36:15.651Z,33.32
2022-08-24T16:38:47.014Z,33.24
2022-08-24T16:41:16.271Z,33.21
2022-08-24T16:43:43.284Z,33.26
2022-08-24T16:46:11.448Z,33.11
2022-08-24T16:48:38.232Z,33.01
2022-08-24T16:51:04.843Z,32.97
2022-08-24T16:53:32.451Z,32.86
2022-08-24T16:55:59.147Z,32.82
2022-08-24T16:58:29.710Z,32.85
2022-08-24T17:00:56.333Z,32.89
2022-08-24T17:03:23.041Z,32.86
2022-08-24T17:05:49.737Z,32.84
2022-08-24T17:08:16.408Z,32.75
2022-08-24T17:10:43.872Z,32.64
2022-08-24T17:13:14.219Z,32.60
2022-08-24T17:15:53.814Z,32.56
2022-08-24T17:18:20.642Z,32.53
2022-08-24T17:20:47.758Z,32.46
2022-08-24T17:23:14.415Z,32.40
2022-08-24T17:25:41.928Z,32.31
2022-08-24T17:28:10.259Z,32.33
2022-08-24T17:30:36.787Z,32.31
2022-08-24T17:33:03.469Z,32.21
2022-08-24T17:35:30.067Z,32.11
2022-08-24T17:37:57.576Z,32.08
2022-08-24T17:40:25.096Z,32.02
2022-08-24T17:42:52.044Z,31.95
2022-08-24T17:45:19.214Z,31.96
2022-08-24T17:47:46.289Z,31.95
2022-08-24T17:50:13.518Z,31.98
2022-08-24T17:52:40.525Z,31.90
2022-08-24T17:55:07.925Z,31.86
2022-08-24T17:57:34.426Z,31.82
2022-08-24T18:00:01.011Z,31.69
2022-08-24T18:02:27.741Z,31.66
2022-08-24T18:04:56.725Z,31.69
2022-08-24T18:07:36.186Z,31.72
2022-08-24T18:10:11.206Z,31.67
2022-08-24T18:12:38.236Z,31.65
2022-08-24T18:15:05.538Z,31.55
2022-08-24T18:17:44.878Z,31.50
2022-08-24T18:20:13.777Z,31.46
2022-08-24T18:22:44.885Z,31.41
2022-08-24T18:25:13.007Z,31.34
2022-08-24T18:27:40.114Z,31.27
2022-08-24T18:30:08.145Z,31.19
2022-08-24T18:32:39.242Z,31.16
2022-08-24T18:35:06.989Z,31.13
2022-08-24T18:37:33.623Z,31.10
2022-08-24T18:40:00.410Z,31.05
2022-08-24T18:42:28.328Z,31.01
2022-08-24T18:44:55.055Z,30.97
2022-08-24T18:47:21.631Z,30.92
2022-08-24T18:49:48.520Z,30.85
2022-08-24T18:52:17.086Z,30.81
2022-08-24T18:54:45.020Z,30.78
2022-08-24T18:57:11.690Z,30.75
2022-08-24T18:59:40.571Z,30.73
2022-08-24T19:02:30.944Z,30.68
2022-08-24T19:04:59.055Z,30.62
2022-08-24T19:07:26.681Z,30.58
2022-08-24T19:09:53.232Z,30.54
2022-08-24T19:12:20.443Z,30.52
2022-08-24T19:14:49.984Z,30.49
2022-08-24T19:17:16.624Z,30.46
2022-08-24T19:19:43.201Z,30.43
2022-08-24T19:22:10.652Z,30.40
2022-08-24T19:24:38.236Z,30.35
2022-08-24T19:27:06.661Z,30.28
2022-08-24T19:29:54.741Z,30.18
2022-08-24T19:32:22.496Z,30.10
2022-08-24T19:34:50.003Z,30.05
2022-08-24T19:37:16.711Z,30.01
2022-08-24T19:39:43.569Z,29.95
2022-08-24T19:42:12.946Z,29.89
2022-08-24T19:44:58.641Z,29.86
2022-08-24T19:47:25.824Z,29.80
2022-08-24T19:49:52.668Z,29.70
2022-08-24T19:52:20.333Z,29.66
2022-08-24T19:54:47.456Z,29.64
2022-08-24T19:57:32.719Z,29.60
2022-08-24T20:00:00.963Z,29.56
2022-08-24T20:02:27.572Z,29.50
2022-08-24T20:04:54.355Z,29.48
2022-08-24T20:07:21.012Z,29.48
2022-08-24T20:09:47.558Z,29.46
2022-08-24T20:12:14.076Z,29.41
2022-08-24T20:14:40.621Z,29.34
2022-08-24T20:17:07.156Z,29.34
2022-08-24T20:19:36.354Z,29.31
2022-08-24T20:22:02.922Z,29.31
2022-08-24T20:24:39.971Z,29.32
2022-08-24T20:27:06.546Z,29.31
2022-08-24T20:29:33.350Z,29.28
2022-08-24T20:32:02.466Z,29.27
2022-08-24T20:34:29.670Z,29.26
2022-08-24T20:36:57.349Z,29.25
2022-08-24T20:39:25.754Z,29.21
2022-08-24T20:41:53.146Z,29.18
2022-08-24T20:44:19.779Z,29.17
2022-08-24T20:46:49.638Z,29.12
2022-08-24T20:49:16.883Z,29.10
2022-08-24T20:51:43.976Z,29.07
2022-08-24T20:54:11.345Z,29.04
2022-08-24T20:56:38.416Z,28.97
2022-08-24T20:59:06.483Z,28.92
2022-08-24T21:01:33.118Z,28.90
2022-08-24T21:04:04.834Z,28.88
2022-08-24T21:06:32.055Z,28.86
2022-08-24T21:08:58.568Z,28.82
2022-08-24T21:11:25.155Z,28.78
2022-08-24T21:13:51.879Z,28.78
2022-08-24T21:16:18.764Z,28.76
2022-08-24T21:18:46.935Z,28.72
2022-08-24T21:21:13.650Z,28.69
2022-08-24T21:23:40.385Z,28.69
2022-08-24T21:26:08.613Z,28.67
2022-08-24T21:28:36.282Z,28.64
2022-08-24T21:31:06.179Z,28.64
2022-08-24T21:33:52.241Z,28.57
2022-08-24T21:36:20.551Z,28.50
2022-08-24T21:38:47.397Z,28.46
2022-08-24T21:41:13.924Z,28.41
2022-08-24T21:43:40.470Z,28.38
2022-08-24T21:46:08.096Z,28.34
2022-08-24T21:48:34.644Z,28.30
2022-08-24T21:51:01.243Z,28.25
2022-08-24T21:53:28.667Z,28.21
2022-08-24T21:55:56.010Z,28.17
2022-08-24T21:58:24.036Z,28.13
2022-08-24T22:00:51.835Z,28.09
2022-08-24T22:03:18.522Z,28.07
2022-08-24T22:05:45.243Z,28.05
2022-08-24T22:08:11.833Z,28.04
2022-08-24T22:10:38.428Z,28.04
2022-08-24T22:13:05.050Z,28.03
2022-08-24T22:15:33.700Z,28.00
2022-08-24T22:18:00.729Z,27.96
2022-08-24T22:20:27.355Z,27.92
2022-08-24T22:22:53.991Z,27.92
2022-08-24T22:25:20.626Z,27.90
2022-08-24T22:27:47.473Z,27.88
2022-08-24T22:30:15.856Z,27.85
2022-08-24T22:32:42.499Z,27.82
2022-08-24T22:35:09.347Z,27.82
2022-08-24T22:37:36.042Z,27.81
2022-08-24T22:40:03.876Z,27.80
2022-08-24T22:42:30.538Z,27.77
2022-08-24T22:44:58.650Z,27.72
2022-08-24T22:47:25.945Z,27.68
2022-08-24T22:49:54.603Z,27.68
2022-08-24T22:52:21.189Z,27.62
2022-08-24T22:54:47.755Z,27.59
2022-08-24T22:57:14.312Z,27.55
2022-08-24T22:59:46.337Z,27.51
2022-08-24T23:02:14.625Z,27.46
2022-08-24T23:04:45.855Z,27.44
2022-08-24T23:07:13.847Z,27.41
2022-08-24T23:09:44.652Z,27.38
2022-08-24T23:12:12.831Z,27.38
2022-08-24T23:14:39.572Z,27.35
2022-08-24T23:17:06.159Z,27.35
2022-08-24T23:19:51.581Z,27.33
2022-08-24T23:22:19.251Z,27.33
2022-08-24T23:24:46.172Z,27.30
2022-08-24T23:27:13.730Z,27.30
2022-08-24T23:29:40.423Z,27.30
2022-08-24T23:32:07.259Z,27.27
2022-08-24T23:34:34.489Z,27.25
2022-08-24T23:37:01.364Z,27.25
2022-08-24T23:39:28.210Z,27.24
2022-08-24T23:41:55.142Z,27.23
2022-08-24T23:44:26.036Z,27.19
2022-08-24T23:46:52.772Z,27.15
2022-08-24T23:49:20.194Z,27.12
2022-08-24T23:51:47.354Z,27.09
2022-08-24T23:54:14.864Z,27.07
2022-08-24T23:56:42.546Z,27.05
2022-08-24T23:59:17.018Z,27.04
